sensor_id;sensor_type;location;lat;lon;timestamp;temperature;humidity
67279;DHT22;54193;53.746;10.058;2023-03-01T00:01:10;-2.05;90.85
67279;DHT22;54193;53.746;10.058;2023-03-01T00:03:57;-1.93;90.77
67279;DHT22;54193;53.746;10.058;2023-03-01T00:06:43;-1.95;90.72
67279;DHT22;54193;53.746;10.058;2023-03-01T00:09:31;-2.03;90.70
67279;DHT22;54193;53.746;10.058;2023-03-01T00:12:17;-2.09;90.65
67279;DHT22;54193;53.746;10.058;2023-03-01T00:15:02;-2.13;90.73
67279;DHT22;54193;53.746;10.058;2023-03-01T00:17:50;-2.14;90.75
67279;DHT22;54193;53.746;10.058;2023-03-01T00:20:35;-2.23;90.96
67279;DHT22;54193;53.746;10.058;2023-03-01T00:23:22;-2.27;91.01
67279;DHT22;54193;53.746;10.058;2023-03-01T00:26:10;-2.13;91.03
67279;DHT22;54193;53.746;10.058;2023-03-01T00:28:57;-2.02;91.01
67279;DHT22;54193;53.746;10.058;2023-03-01T00:31:43;-1.92;90.98
67279;DHT22;54193;53.746;10.058;2023-03-01T00:34:29;-1.90;90.93
67279;DHT22;54193;53.746;10.058;2023-03-01T00:37:14;-1.92;90.90
67279;DHT22;54193;53.746;10.058;2023-03-01T00:40:00;-1.95;90.86
67279;DHT22;54193;53.746;10.058;2023-03-01T00:42:45;-1.90;90.87
67279;DHT22;54193;53.746;10.058;2023-03-01T00:45:32;-2.03;90.96
67279;DHT22;54193;53.746;10.058;2023-03-01T00:48:18;-2.11;91.02
67279;DHT22;54193;53.746;10.058;2023-03-01T00:51:26;-2.24;91.19
67279;DHT22;54193;53.746;10.058;2023-03-01T00:54:10;-2.34;91.19
67279;DHT22;54193;53.746;10.058;2023-03-01T00:56:56;-2.40;91.35
67279;DHT22;54193;53.746;10.058;2023-03-01T00:59:42;-2.33;91.35
67279;DHT22;54193;53.746;10.058;2023-03-01T01:02:27;-2.24;91.35
67279;DHT22;54193;53.746;10.058;2023-03-01T01:05:13;-2.31;91.40
67279;DHT22;54193;53.746;10.058;2023-03-01T01:07:59;-2.31;91.42
67279;DHT22;54193;53.746;10.058;2023-03-01T01:10:46;-2.43;91.48
67279;DHT22;54193;53.746;10.058;2023-03-01T01:13:32;-2.60;91.52
67279;DHT22;54193;53.746;10.058;2023-03-01T01:16:19;-2.48;91.92
67279;DHT22;54193;53.746;10.058;2023-03-01T01:19:05;-2.55;92.14
67279;DHT22;54193;53.746;10.058;2023-03-01T01:21:51;-2.52;92.44
67279;DHT22;54193;53.746;10.058;2023-03-01T01:24:37;-2.55;93.00
67279;DHT22;54193;53.746;10.058;2023-03-01T01:27:22;-2.69;92.93
67279;DHT22;54193;53.746;10.058;2023-03-01T01:30:08;-2.60;93.05
67279;DHT22;54193;53.746;10.058;2023-03-01T01:32:54;-2.72;92.91
67279;DHT22;54193;53.746;10.058;2023-03-01T01:35:40;-2.72;92.94
67279;DHT22;54193;53.746;10.058;2023-03-01T01:38:25;-2.88;92.92
67279;DHT22;54193;53.746;10.058;2023-03-01T01:41:12;-2.93;93.06
67279;DHT22;54193;53.746;10.058;2023-03-01T01:47:03;-2.78;93.20
67279;DHT22;54193;53.746;10.058;2023-03-01T01:49:53;-2.93;92.99
67279;DHT22;54193;53.746;10.058;2023-03-01T01:52:39;-2.96;93.03
67279;DHT22;54193;53.746;10.058;2023-03-01T01:55:26;-2.85;93.32
67279;DHT22;54193;53.746;10.058;2023-03-01T01:58:15;-2.82;93.43
67279;DHT22;54193;53.746;10.058;2023-03-01T02:01:03;-2.99;93.35
67279;DHT22;54193;53.746;10.058;2023-03-01T02:03:50;-2.90;93.10
67279;DHT22;54193;53.746;10.058;2023-03-01T02:06:49;-2.89;92.96
67279;DHT22;54193;53.746;10.058;2023-03-01T02:09:36;-2.95;93.07
67279;DHT22;54193;53.746;10.058;2023-03-01T02:12:24;-2.92;93.14
67279;DHT22;54193;53.746;10.058;2023-03-01T02:15:10;-2.97;93.09
67279;DHT22;54193;53.746;10.058;2023-03-01T02:17:56;-3.06;93.24
67279;DHT22;54193;53.746;10.058;2023-03-01T02:23:44;-2.73;92.86
67279;DHT22;54193;53.746;10.058;2023-03-01T02:26:40;-2.58;92.87
67279;DHT22;54193;53.746;10.058;2023-03-01T02:29:28;-2.43;92.88
67279;DHT22;54193;53.746;10.058;2023-03-01T02:32:14;-2.41;92.88
67279;DHT22;54193;53.746;10.058;2023-03-01T02:35:01;-2.60;92.93
67279;DHT22;54193;53.746;10.058;2023-03-01T02:37:47;-2.75;93.02
67279;DHT22;54193;53.746;10.058;2023-03-01T02:40:34;-2.64;92.92
67279;DHT22;54193;53.746;10.058;2023-03-01T02:43:23;-2.75;93.29
67279;DHT22;54193;53.746;10.058;2023-03-01T02:46:27;-2.78;93.29
67279;DHT22;54193;53.746;10.058;2023-03-01T02:49:23;-2.72;93.17
67279;DHT22;54193;53.746;10.058;2023-03-01T02:52:37;-2.68;92.95
67279;DHT22;54193;53.746;10.058;2023-03-01T02:55:27;-2.61;93.00
67279;DHT22;54193;53.746;10.058;2023-03-01T02:58:13;-2.58;92.99
67279;DHT22;54193;53.746;10.058;2023-03-01T03:00:59;-2.48;93.07
67279;DHT22;54193;53.746;10.058;2023-03-01T03:03:46;-2.54;93.04
67279;DHT22;54193;53.746;10.058;2023-03-01T03:06:32;-2.76;93.65
67279;DHT22;54193;53.746;10.058;2023-03-01T03:09:18;-2.68;93.75
67279;DHT22;54193;53.746;10.058;2023-03-01T03:12:04;-2.65;93.84
67279;DHT22;54193;53.746;10.058;2023-03-01T03:14:50;-2.68;93.88
67279;DHT22;54193;53.746;10.058;2023-03-01T03:17:37;-2.43;93.80
67279;DHT22;54193;53.746;10.058;2023-03-01T03:20:26;-2.13;93.59
67279;DHT22;54193;53.746;10.058;2023-03-01T03:23:12;-2.03;93.55
67279;DHT22;54193;53.746;10.058;2023-03-01T03:25:58;-1.96;93.49
67279;DHT22;54193;53.746;10.058;2023-03-01T03:28:43;-1.85;93.55
67279;DHT22;54193;53.746;10.058;2023-03-01T03:31:29;-1.76;93.53
67279;DHT22;54193;53.746;10.058;2023-03-01T03:34:16;-1.71;93.56
67279;DHT22;54193;53.746;10.058;2023-03-01T03:37:03;-1.65;93.54
67279;DHT22;54193;53.746;10.058;2023-03-01T03:39:48;-1.64;93.51
67279;DHT22;54193;53.746;10.058;2023-03-01T03:42:34;-1.59;93.53
67279;DHT22;54193;53.746;10.058;2023-03-01T03:45:20;-1.62;93.46
67279;DHT22;54193;53.746;10.058;2023-03-01T03:48:08;-1.68;93.38
67279;DHT22;54193;53.746;10.058;2023-03-01T03:50:55;-1.75;93.44
67279;DHT22;54193;53.746;10.058;2023-03-01T03:53:43;-1.75;93.44
67279;DHT22;54193;53.746;10.058;2023-03-01T03:56:28;-1.86;93.59
67279;DHT22;54193;53.746;10.058;2023-03-01T03:59:14;-1.93;93.57
67279;DHT22;54193;53.746;10.058;2023-03-01T04:02:00;-1.95;93.35
67279;DHT22;54193;53.746;10.058;2023-03-01T04:04:45;-1.89;93.12
67279;DHT22;54193;53.746;10.058;2023-03-01T04:07:31;-1.82;92.97
67279;DHT22;54193;53.746;10.058;2023-03-01T04:10:18;-1.82;92.89
67279;DHT22;54193;53.746;10.058;2023-03-01T04:13:10;-1.78;92.92
67279;DHT22;54193;53.746;10.058;2023-03-01T04:15:56;-1.76;92.89
67279;DHT22;54193;53.746;10.058;2023-03-01T04:18:42;-1.83;92.91
67279;DHT22;54193;53.746;10.058;2023-03-01T04:21:27;-1.92;93.04
67279;DHT22;54193;53.746;10.058;2023-03-01T04:24:13;-2.03;93.09
67279;DHT22;54193;53.746;10.058;2023-03-01T04:26:59;-2.10;93.15
67279;DHT22;54193;53.746;10.058;2023-03-01T04:29:44;-2.09;93.35
67279;DHT22;54193;53.746;10.058;2023-03-01T04:32:30;-2.09;93.43
67279;DHT22;54193;53.746;10.058;2023-03-01T04:35:16;-2.00;93.47
67279;DHT22;54193;53.746;10.058;2023-03-01T04:38:02;-1.97;93.53
67279;DHT22;54193;53.746;10.058;2023-03-01T04:40:48;-1.90;93.62
67279;DHT22;54193;53.746;10.058;2023-03-01T04:43:34;-1.87;93.73
67279;DHT22;54193;53.746;10.058;2023-03-01T04:46:20;-1.81;93.89
67279;DHT22;54193;53.746;10.058;2023-03-01T04:49:06;-1.83;93.96
67279;DHT22;54193;53.746;10.058;2023-03-01T04:51:52;-1.75;93.96
67279;DHT22;54193;53.746;10.058;2023-03-01T04:54:38;-1.75;93.92
67279;DHT22;54193;53.746;10.058;2023-03-01T04:57:23;-1.68;93.61
67279;DHT22;54193;53.746;10.058;2023-03-01T05:00:14;-1.55;93.79
67279;DHT22;54193;53.746;10.058;2023-03-01T05:03:05;-1.52;93.58
67279;DHT22;54193;53.746;10.058;2023-03-01T05:05:52;-1.41;93.58
67279;DHT22;54193;53.746;10.058;2023-03-01T05:08:38;-1.43;93.46
67279;DHT22;54193;53.746;10.058;2023-03-01T05:11:24;-1.30;93.44
67279;DHT22;54193;53.746;10.058;2023-03-01T05:14:10;-1.30;93.14
67279;DHT22;54193;53.746;10.058;2023-03-01T05:16:56;-1.31;93.05
67279;DHT22;54193;53.746;10.058;2023-03-01T05:19:49;-1.29;93.04
67279;DHT22;54193;53.746;10.058;2023-03-01T05:22:35;-1.24;93.09
67279;DHT22;54193;53.746;10.058;2023-03-01T05:25:21;-0.99;93.16
67279;DHT22;54193;53.746;10.058;2023-03-01T05:28:11;-0.86;93.19
67279;DHT22;54193;53.746;10.058;2023-03-01T05:30:57;-0.78;93.15
67279;DHT22;54193;53.746;10.058;2023-03-01T05:33:43;-0.72;93.10
67279;DHT22;54193;53.746;10.058;2023-03-01T05:36:28;-0.78;92.96
67279;DHT22;54193;53.746;10.058;2023-03-01T05:39:15;-0.85;92.84
67279;DHT22;54193;53.746;10.058;2023-03-01T05:42:01;-0.88;92.77
67279;DHT22;54193;53.746;10.058;2023-03-01T05:44:46;-0.99;92.70
67279;DHT22;54193;53.746;10.058;2023-03-01T05:47:32;-1.04;92.68
67279;DHT22;54193;53.746;10.058;2023-03-01T05:50:23;-1.06;92.63
67279;DHT22;54193;53.746;10.058;2023-03-01T05:53:19;-1.13;92.37
67279;DHT22;54193;53.746;10.058;2023-03-01T05:56:06;-1.17;92.43
67279;DHT22;54193;53.746;10.058;2023-03-01T05:58:52;-1.14;92.46
67279;DHT22;54193;53.746;10.058;2023-03-01T06:01:38;-1.41;92.29
67279;DHT22;54193;53.746;10.058;2023-03-01T06:04:23;-1.50;92.34
67279;DHT22;54193;53.746;10.058;2023-03-01T06:07:09;-1.71;92.52
67279;DHT22;54193;53.746;10.058;2023-03-01T06:09:54;-1.72;92.50
67279;DHT22;54193;53.746;10.058;2023-03-01T06:12:42;-1.75;92.53
67279;DHT22;54193;53.746;10.058;2023-03-01T06:15:29;-1.74;93.04
67279;DHT22;54193;53.746;10.058;2023-03-01T06:18:15;-1.65;92.97
67279;DHT22;54193;53.746;10.058;2023-03-01T06:21:05;-1.74;92.83
67279;DHT22;54193;53.746;10.058;2023-03-01T06:23:51;-1.65;92.59
67279;DHT22;54193;53.746;10.058;2023-03-01T06:26:37;-1.65;92.37
67279;DHT22;54193;53.746;10.058;2023-03-01T06:29:24;-1.54;92.39
67279;DHT22;54193;53.746;10.058;2023-03-01T06:32:10;-1.51;92.15
67279;DHT22;54193;53.746;10.058;2023-03-01T06:34:55;-1.58;92.12
67279;DHT22;54193;53.746;10.058;2023-03-01T06:37:41;-1.46;92.29
67279;DHT22;54193;53.746;10.058;2023-03-01T06:40:27;-1.23;92.41
67279;DHT22;54193;53.746;10.058;2023-03-01T06:43:13;-0.99;92.52
67279;DHT22;54193;53.746;10.058;2023-03-01T06:45:58;-0.78;92.35
67279;DHT22;54193;53.746;10.058;2023-03-01T06:48:44;-0.64;92.09
67279;DHT22;54193;53.746;10.058;2023-03-01T06:51:30;-0.47;91.93
67279;DHT22;54193;53.746;10.058;2023-03-01T06:54:15;-0.35;91.61
67279;DHT22;54193;53.746;10.058;2023-03-01T06:57:03;-0.21;91.40
67279;DHT22;54193;53.746;10.058;2023-03-01T06:59:48;-0.16;90.95
67279;DHT22;54193;53.746;10.058;2023-03-01T07:02:34;-0.05;90.69
67279;DHT22;54193;53.746;10.058;2023-03-01T07:05:20;0.04;90.42
67279;DHT22;54193;53.746;10.058;2023-03-01T07:08:06;-0.20;89.67
67279;DHT22;54193;53.746;10.058;2023-03-01T07:10:56;-0.21;90.21
67279;DHT22;54193;53.746;10.058;2023-03-01T07:13:41;-0.07;90.17
67279;DHT22;54193;53.746;10.058;2023-03-01T07:16:30;-0.13;90.38
67279;DHT22;54193;53.746;10.058;2023-03-01T07:19:16;-0.13;90.60
67279;DHT22;54193;53.746;10.058;2023-03-01T07:22:03;-0.11;90.62
67279;DHT22;54193;53.746;10.058;2023-03-01T07:24:49;0.14;90.56
67279;DHT22;54193;53.746;10.058;2023-03-01T07:27:36;0.14;90.36
67279;DHT22;54193;53.746;10.058;2023-03-01T07:30:22;0.05;90.71
67279;DHT22;54193;53.746;10.058;2023-03-01T07:33:09;0.15;90.72
67279;DHT22;54193;53.746;10.058;2023-03-01T07:36:02;0.39;90.49
67279;DHT22;54193;53.746;10.058;2023-03-01T07:38:48;0.55;90.06
67279;DHT22;54193;53.746;10.058;2023-03-01T07:41:34;0.60;89.69
67279;DHT22;54193;53.746;10.058;2023-03-01T07:44:19;0.60;89.58
67279;DHT22;54193;53.746;10.058;2023-03-01T07:47:05;0.91;89.28
67279;DHT22;54193;53.746;10.058;2023-03-01T07:49:51;0.87;88.77
67279;DHT22;54193;53.746;10.058;2023-03-01T07:52:36;0.98;88.94
67279;DHT22;54193;53.746;10.058;2023-03-01T07:55:22;1.11;88.64
67279;DHT22;54193;53.746;10.058;2023-03-01T07:58:09;1.09;88.49
67279;DHT22;54193;53.746;10.058;2023-03-01T08:00:54;1.23;88.84
67279;DHT22;54193;53.746;10.058;2023-03-01T08:03:40;1.38;88.37
67279;DHT22;54193;53.746;10.058;2023-03-01T08:06:26;1.45;88.16
67279;DHT22;54193;53.746;10.058;2023-03-01T08:09:11;1.80;87.72
67279;DHT22;54193;53.746;10.058;2023-03-01T08:11:57;1.73;87.89
67279;DHT22;54193;53.746;10.058;2023-03-01T08:14:46;1.84;88.12
67279;DHT22;54193;53.746;10.058;2023-03-01T08:17:33;1.77;88.09
67279;DHT22;54193;53.746;10.058;2023-03-01T08:20:18;1.99;88.25
67279;DHT22;54193;53.746;10.058;2023-03-01T08:23:04;2.11;87.30
67279;DHT22;54193;53.746;10.058;2023-03-01T08:25:50;2.42;87.17
67279;DHT22;54193;53.746;10.058;2023-03-01T08:28:36;2.76;87.01
67279;DHT22;54193;53.746;10.058;2023-03-01T08:34:13;2.75;86.68
67279;DHT22;54193;53.746;10.058;2023-03-01T08:36:59;2.87;86.68
67279;DHT22;54193;53.746;10.058;2023-03-01T08:39:45;3.28;86.12
67279;DHT22;54193;53.746;10.058;2023-03-01T08:42:32;3.10;85.85
67279;DHT22;54193;53.746;10.058;2023-03-01T08:45:18;3.78;85.08
67279;DHT22;54193;53.746;10.058;2023-03-01T08:48:04;2.87;85.83
67279;DHT22;54193;53.746;10.058;2023-03-01T08:50:50;3.28;84.81
67279;DHT22;54193;53.746;10.058;2023-03-01T08:53:35;2.62;87.32
67279;DHT22;54193;53.746;10.058;2023-03-01T08:56:21;2.41;87.12
67279;DHT22;54193;53.746;10.058;2023-03-01T08:59:07;2.62;87.24
67279;DHT22;54193;53.746;10.058;2023-03-01T09:01:53;2.32;87.71
67279;DHT22;54193;53.746;10.058;2023-03-01T09:04:39;2.17;88.34
67279;DHT22;54193;53.746;10.058;2023-03-01T09:07:26;2.11;88.61
67279;DHT22;54193;53.746;10.058;2023-03-01T09:10:13;2.07;88.52
67279;DHT22;54193;53.746;10.058;2023-03-01T09:12:59;2.39;88.65
67279;DHT22;54193;53.746;10.058;2023-03-01T09:15:44;3.17;87.48
67279;DHT22;54193;53.746;10.058;2023-03-01T09:18:31;4.37;81.60
67279;DHT22;54193;53.746;10.058;2023-03-01T09:21:17;5.06;79.23
67279;DHT22;54193;53.746;10.058;2023-03-01T09:24:05;5.07;78.41
67279;DHT22;54193;53.746;10.058;2023-03-01T09:26:53;4.75;80.91
67279;DHT22;54193;53.746;10.058;2023-03-01T09:29:39;4.69;79.64
67279;DHT22;54193;53.746;10.058;2023-03-01T09:32:25;3.93;83.69
67279;DHT22;54193;53.746;10.058;2023-03-01T09:35:11;4.38;81.97
67279;DHT22;54193;53.746;10.058;2023-03-01T09:37:57;3.52;83.77
67279;DHT22;54193;53.746;10.058;2023-03-01T09:40:43;2.50;87.07
67279;DHT22;54193;53.746;10.058;2023-03-01T09:43:45;2.86;87.82
67279;DHT22;54193;53.746;10.058;2023-03-01T09:46:37;3.14;86.88
67279;DHT22;54193;53.746;10.058;2023-03-01T09:49:28;2.90;87.07
67279;DHT22;54193;53.746;10.058;2023-03-01T09:52:41;2.82;87.42
67279;DHT22;54193;53.746;10.058;2023-03-01T09:55:38;1.69;90.77
67279;DHT22;54193;53.746;10.058;2023-03-01T10:04:28;1.99;90.87
67279;DHT22;54193;53.746;10.058;2023-03-01T10:10:38;1.80;91.61
67279;DHT22;54193;53.746;10.058;2023-03-01T10:16:26;2.21;90.87
67279;DHT22;54193;53.746;10.058;2023-03-01T10:19:20;1.84;91.29
67279;DHT22;54193;53.746;10.058;2023-03-01T10:22:15;2.13;91.56
67279;DHT22;54193;53.746;10.058;2023-03-01T10:25:03;2.06;91.46
67279;DHT22;54193;53.746;10.058;2023-03-01T10:27:54;2.14;91.74
67279;DHT22;54193;53.746;10.058;2023-03-01T10:30:40;3.00;91.08
67279;DHT22;54193;53.746;10.058;2023-03-01T10:33:31;2.94;90.24
67279;DHT22;54193;53.746;10.058;2023-03-01T10:36:17;3.59;89.14
67279;DHT22;54193;53.746;10.058;2023-03-01T10:39:12;3.87;87.52
67279;DHT22;54193;53.746;10.058;2023-03-01T10:42:04;4.37;86.96
67279;DHT22;54193;53.746;10.058;2023-03-01T10:44:50;4.61;85.66
67279;DHT22;54193;53.746;10.058;2023-03-01T10:47:35;4.53;84.93
67279;DHT22;54193;53.746;10.058;2023-03-01T10:50:22;4.46;85.33
67279;DHT22;54193;53.746;10.058;2023-03-01T10:53:21;4.28;85.72
67279;DHT22;54193;53.746;10.058;2023-03-01T10:56:09;4.17;86.19
67279;DHT22;54193;53.746;10.058;2023-03-01T10:59:00;4.52;86.48
67279;DHT22;54193;53.746;10.058;2023-03-01T11:01:46;4.46;85.23
67279;DHT22;54193;53.746;10.058;2023-03-01T11:07:53;3.63;89.33
67279;DHT22;54193;53.746;10.058;2023-03-01T11:10:40;3.13;89.60
67279;DHT22;54193;53.746;10.058;2023-03-01T11:13:26;2.97;90.02
67279;DHT22;54193;53.746;10.058;2023-03-01T11:16:12;2.86;90.41
67279;DHT22;54193;53.746;10.058;2023-03-01T11:19:01;3.13;90.89
67279;DHT22;54193;53.746;10.058;2023-03-01T11:24:47;3.51;88.74
67279;DHT22;54193;53.746;10.058;2023-03-01T11:27:37;3.15;90.09
67279;DHT22;54193;53.746;10.058;2023-03-01T11:30:28;3.10;90.14
67279;DHT22;54193;53.746;10.058;2023-03-01T11:33:24;2.90;89.57
67279;DHT22;54193;53.746;10.058;2023-03-01T11:39:20;3.30;89.86
67279;DHT22;54193;53.746;10.058;2023-03-01T11:42:34;3.35;89.52
67279;DHT22;54193;53.746;10.058;2023-03-01T11:45:24;3.54;89.64
67279;DHT22;54193;53.746;10.058;2023-03-01T11:51:59;3.66;88.71
67279;DHT22;54193;53.746;10.058;2023-03-01T12:03:58;4.06;88.01
67279;DHT22;54193;53.746;10.058;2023-03-01T12:13:03;3.98;88.35
67279;DHT22;54193;53.746;10.058;2023-03-01T12:19:33;4.03;88.03
67279;DHT22;54193;53.746;10.058;2023-03-01T12:22:48;4.00;87.51
67279;DHT22;54193;53.746;10.058;2023-03-01T12:25:41;4.14;87.61
67279;DHT22;54193;53.746;10.058;2023-03-01T12:38:18;4.58;85.73
67279;DHT22;54193;53.746;10.058;2023-03-01T12:41:31;4.55;84.11
67279;DHT22;54193;53.746;10.058;2023-03-01T12:47:23;4.62;83.31
67279;DHT22;54193;53.746;10.058;2023-03-01T12:50:17;4.73;83.55
67279;DHT22;54193;53.746;10.058;2023-03-01T12:53:04;4.69;82.59
67279;DHT22;54193;53.746;10.058;2023-03-01T12:55:50;4.72;82.31
67279;DHT22;54193;53.746;10.058;2023-03-01T13:08:12;5.16;82.35
67279;DHT22;54193;53.746;10.058;2023-03-01T13:11:05;5.13;82.00
67279;DHT22;54193;53.746;10.058;2023-03-01T13:13:51;5.16;81.83
67279;DHT22;54193;53.746;10.058;2023-03-01T13:16:41;5.44;82.55
67279;DHT22;54193;53.746;10.058;2023-03-01T13:19:30;5.27;81.81
67279;DHT22;54193;53.746;10.058;2023-03-01T13:22:30;5.32;81.86
67279;DHT22;54193;53.746;10.058;2023-03-01T13:25:19;5.13;80.55
67279;DHT22;54193;53.746;10.058;2023-03-01T13:29:11;5.13;80.75
67279;DHT22;54193;53.746;10.058;2023-03-01T13:34:41;5.39;80.13
67279;DHT22;54193;53.746;10.058;2023-03-01T13:37:34;5.41;80.03
67279;DHT22;54193;53.746;10.058;2023-03-01T13:43:29;5.44;80.52
67279;DHT22;54193;53.746;10.058;2023-03-01T13:46:21;5.58;81.28
67279;DHT22;54193;53.746;10.058;2023-03-01T13:49:20;5.54;81.21
67279;DHT22;54193;53.746;10.058;2023-03-01T13:52:27;5.56;80.60
67279;DHT22;54193;53.746;10.058;2023-03-01T13:55:36;5.66;80.71
67279;DHT22;54193;53.746;10.058;2023-03-01T13:58:29;5.54;80.11
67279;DHT22;54193;53.746;10.058;2023-03-01T14:01:30;5.65;80.74
67279;DHT22;54193;53.746;10.058;2023-03-01T14:04:31;5.67;80.22
67279;DHT22;54193;53.746;10.058;2023-03-01T14:07:22;5.65;80.04
67279;DHT22;54193;53.746;10.058;2023-03-01T14:10:12;5.75;79.62
67279;DHT22;54193;53.746;10.058;2023-03-01T14:16:40;5.72;79.92
67279;DHT22;54193;53.746;10.058;2023-03-01T14:19:31;5.82;80.02
67279;DHT22;54193;53.746;10.058;2023-03-01T14:22:23;5.86;79.21
67279;DHT22;54193;53.746;10.058;2023-03-01T14:25:22;5.86;78.42
67279;DHT22;54193;53.746;10.058;2023-03-01T14:28:17;5.83;79.26
67279;DHT22;54193;53.746;10.058;2023-03-01T14:34:22;5.93;78.59
67279;DHT22;54193;53.746;10.058;2023-03-01T14:37:19;5.86;77.99
67279;DHT22;54193;53.746;10.058;2023-03-01T14:40:20;5.87;77.60
67279;DHT22;54193;53.746;10.058;2023-03-01T14:43:11;5.85;77.19
67279;DHT22;54193;53.746;10.058;2023-03-01T14:45:57;5.87;77.34
67279;DHT22;54193;53.746;10.058;2023-03-01T14:48:43;5.87;77.78
67279;DHT22;54193;53.746;10.058;2023-03-01T14:51:29;5.90;78.19
67279;DHT22;54193;53.746;10.058;2023-03-01T14:54:22;5.80;77.59
67279;DHT22;54193;53.746;10.058;2023-03-01T14:57:14;5.77;78.09
67279;DHT22;54193;53.746;10.058;2023-03-01T15:00:03;5.89;78.44
67279;DHT22;54193;53.746;10.058;2023-03-01T15:02:53;5.82;77.66
67279;DHT22;54193;53.746;10.058;2023-03-01T15:05:39;5.85;78.50
67279;DHT22;54193;53.746;10.058;2023-03-01T15:08:26;5.76;78.69
67279;DHT22;54193;53.746;10.058;2023-03-01T15:11:32;5.80;79.02
67279;DHT22;54193;53.746;10.058;2023-03-01T15:14:36;5.73;79.43
67279;DHT22;54193;53.746;10.058;2023-03-01T15:17:30;5.69;79.66
67279;DHT22;54193;53.746;10.058;2023-03-01T15:20:19;5.75;77.69
67279;DHT22;54193;53.746;10.058;2023-03-01T15:23:26;5.79;76.60
67279;DHT22;54193;53.746;10.058;2023-03-01T15:26:30;5.73;76.78
67279;DHT22;54193;53.746;10.058;2023-03-01T15:29:19;5.73;77.10
67279;DHT22;54193;53.746;10.058;2023-03-01T15:32:23;5.76;77.54
67279;DHT22;54193;53.746;10.058;2023-03-01T15:35:38;5.70;77.80
67279;DHT22;54193;53.746;10.058;2023-03-01T15:41:32;5.59;78.51
67279;DHT22;54193;53.746;10.058;2023-03-01T15:44:27;5.67;77.86
67279;DHT22;54193;53.746;10.058;2023-03-01T15:47:39;5.62;78.65
67279;DHT22;54193;53.746;10.058;2023-03-01T15:50:31;5.54;79.41
67279;DHT22;54193;53.746;10.058;2023-03-01T15:53:18;5.42;79.90
67279;DHT22;54193;53.746;10.058;2023-03-01T15:56:04;5.35;80.65
67279;DHT22;54193;53.746;10.058;2023-03-01T15:58:52;5.30;80.80
67279;DHT22;54193;53.746;10.058;2023-03-01T16:01:38;5.21;81.32
67279;DHT22;54193;53.746;10.058;2023-03-01T16:04:24;5.11;81.88
67279;DHT22;54193;53.746;10.058;2023-03-01T16:07:09;5.06;82.26
67279;DHT22;54193;53.746;10.058;2023-03-01T16:09:55;5.01;82.62
67279;DHT22;54193;53.746;10.058;2023-03-01T16:12:41;4.84;83.39
67279;DHT22;54193;53.746;10.058;2023-03-01T16:15:32;4.80;83.74
67279;DHT22;54193;53.746;10.058;2023-03-01T16:18:19;4.73;84.09
67279;DHT22;54193;53.746;10.058;2023-03-01T16:21:05;4.76;84.45
67279;DHT22;54193;53.746;10.058;2023-03-01T16:23:52;4.66;84.70
67279;DHT22;54193;53.746;10.058;2023-03-01T16:26:37;4.51;85.18
67279;DHT22;54193;53.746;10.058;2023-03-01T16:29:23;4.41;85.54
67279;DHT22;54193;53.746;10.058;2023-03-01T16:32:09;4.35;85.55
67279;DHT22;54193;53.746;10.058;2023-03-01T16:34:54;4.18;85.97
67279;DHT22;54193;53.746;10.058;2023-03-01T16:37:40;3.98;86.47
67279;DHT22;54193;53.746;10.058;2023-03-01T16:40:27;3.89;87.09
67279;DHT22;54193;53.746;10.058;2023-03-01T16:43:13;4.11;85.81
67279;DHT22;54193;53.746;10.058;2023-03-01T16:45:59;4.10;85.74
67279;DHT22;54193;53.746;10.058;2023-03-01T16:48:46;4.07;85.71
67279;DHT22;54193;53.746;10.058;2023-03-01T16:51:32;3.82;86.32
67279;DHT22;54193;53.746;10.058;2023-03-01T16:54:20;3.56;87.21
67279;DHT22;54193;53.746;10.058;2023-03-01T16:57:05;3.27;87.94
67279;DHT22;54193;53.746;10.058;2023-03-01T16:59:53;3.05;88.58
67279;DHT22;54193;53.746;10.058;2023-03-01T17:02:40;2.97;88.91
67279;DHT22;54193;53.746;10.058;2023-03-01T17:05:26;2.73;89.21
67279;DHT22;54193;53.746;10.058;2023-03-01T17:08:12;2.56;89.54
67279;DHT22;54193;53.746;10.058;2023-03-01T17:11:09;2.32;90.04
67279;DHT22;54193;53.746;10.058;2023-03-01T17:13:55;2.13;90.37
67279;DHT22;54193;53.746;10.058;2023-03-01T17:16:42;1.96;90.54
67279;DHT22;54193;53.746;10.058;2023-03-01T17:19:28;1.81;90.76
67279;DHT22;54193;53.746;10.058;2023-03-01T17:22:14;1.64;91.09
67279;DHT22;54193;53.746;10.058;2023-03-01T17:25:00;1.48;91.39
67279;DHT22;54193;53.746;10.058;2023-03-01T17:27:46;1.32;91.77
67279;DHT22;54193;53.746;10.058;2023-03-01T17:30:31;1.28;92.24
67279;DHT22;54193;53.746;10.058;2023-03-01T17:33:19;1.27;92.47
67279;DHT22;54193;53.746;10.058;2023-03-01T17:36:05;1.13;92.75
67279;DHT22;54193;53.746;10.058;2023-03-01T17:38:51;1.09;93.05
67279;DHT22;54193;53.746;10.058;2023-03-01T17:41:38;1.09;93.08
67279;DHT22;54193;53.746;10.058;2023-03-01T17:44:24;1.11;93.21
67279;DHT22;54193;53.746;10.058;2023-03-01T17:47:10;1.18;93.15
67279;DHT22;54193;53.746;10.058;2023-03-01T17:49:56;1.24;92.97
67279;DHT22;54193;53.746;10.058;2023-03-01T17:52:41;1.24;92.89
67279;DHT22;54193;53.746;10.058;2023-03-01T17:55:27;1.21;92.62
67279;DHT22;54193;53.746;10.058;2023-03-01T17:58:13;1.17;92.64
67279;DHT22;54193;53.746;10.058;2023-03-01T18:01:07;1.14;92.69
67279;DHT22;54193;53.746;10.058;2023-03-01T18:03:53;1.09;93.03
67279;DHT22;54193;53.746;10.058;2023-03-01T18:06:38;1.05;93.14
67279;DHT22;54193;53.746;10.058;2023-03-01T18:09:28;1.01;93.75
67279;DHT22;54193;53.746;10.058;2023-03-01T18:12:14;1.01;93.85
67279;DHT22;54193;53.746;10.058;2023-03-01T18:15:00;1.04;93.94
67279;DHT22;54193;53.746;10.058;2023-03-01T18:17:46;1.07;94.03
67279;DHT22;54193;53.746;10.058;2023-03-01T18:20:31;1.11;94.52
67279;DHT22;54193;53.746;10.058;2023-03-01T18:23:18;1.20;94.38
67279;DHT22;54193;53.746;10.058;2023-03-01T18:26:08;1.14;94.54
67279;DHT22;54193;53.746;10.058;2023-03-01T18:28:55;1.21;94.55
67279;DHT22;54193;53.746;10.058;2023-03-01T18:31:43;1.28;94.55
67279;DHT22;54193;53.746;10.058;2023-03-01T18:34:28;1.23;94.50
67279;DHT22;54193;53.746;10.058;2023-03-01T18:37:15;1.25;94.67
67279;DHT22;54193;53.746;10.058;2023-03-01T18:40:01;1.32;94.72
67279;DHT22;54193;53.746;10.058;2023-03-01T18:42:46;1.34;94.72
67279;DHT22;54193;53.746;10.058;2023-03-01T18:45:32;1.35;94.69
67279;DHT22;54193;53.746;10.058;2023-03-01T18:48:18;1.39;94.66
67279;DHT22;54193;53.746;10.058;2023-03-01T18:51:12;1.41;94.63
67279;DHT22;54193;53.746;10.058;2023-03-01T18:53:58;1.32;94.58
67279;DHT22;54193;53.746;10.058;2023-03-01T18:56:44;1.27;94.57
67279;DHT22;54193;53.746;10.058;2023-03-01T18:59:29;1.28;94.61
67279;DHT22;54193;53.746;10.058;2023-03-01T19:02:15;1.27;94.59
67279;DHT22;54193;53.746;10.058;2023-03-01T19:05:01;1.21;94.63
67279;DHT22;54193;53.746;10.058;2023-03-01T19:07:46;1.25;94.64
67279;DHT22;54193;53.746;10.058;2023-03-01T19:10:32;1.20;94.70